createdAt,value
2023-04-20T00:02:16.509Z,98704.06
2023-04-20T00:04:44.675Z,98704.63
2023-04-20T00:07:12.982Z,98707.39
2023-04-20T00:09:40.967Z,98703.27
2023-04-20T00:12:09.656Z,98701.55
2023-04-20T00:14:37.844Z,98701.90
2023-04-20T00:17:06.236Z,98700.52
2023-04-20T00:19:34.820Z,98700.54
2023-04-20T00:22:03.115Z,98696.58
2023-04-20T00:24:31.404Z,98691.73
2023-04-20T00:26:59.589Z,98688.17
2023-04-20T00:29:28.037Z,98690.32
2023-04-20T00:31:56.231Z,98691.94
2023-04-20T00:34:24.420Z,98687.68
2023-04-20T00:36:52.544Z,98686.57
2023-04-20T00:39:21.394Z,98689.61
2023-04-20T00:41:49.678Z,98695.23
2023-04-20T00:44:17.967Z,98698.25
2023-04-20T00:46:46.296Z,98699.58
2023-04-20T00:49:14.323Z,98697.19
2023-04-20T00:51:43.005Z,98694.99
2023-04-20T00:54:13.051Z,98699.35
2023-04-20T00:56:44.113Z,98699.20
2023-04-20T00:59:12.385Z,98700.61
2023-04-20T01:01:41.395Z,98700.77
2023-04-20T01:04:09.767Z,98701.49
2023-04-20T01:06:38.459Z,98699.61
2023-04-20T01:09:06.938Z,98699.27
2023-04-20T01:11:35.051Z,98701.88
2023-04-20T01:14:03.303Z,98696.04
2023-04-20T01:16:36.558Z,98692.60
2023-04-20T01:19:05.922Z,98695.23
2023-04-20T01:21:35.456Z,98692.64
2023-04-20T01:24:03.753Z,98696.30
2023-04-20T01:26:33.978Z,98693.37
2023-04-20T01:29:02.243Z,98688.51
2023-04-20T01:31:31.203Z,98690.91
2023-04-20T01:33:59.535Z,98690.20
2023-04-20T01:36:27.612Z,98690.17
2023-04-20T01:38:55.842Z,98690.51
2023-04-20T01:41:24.682Z,98690.15
2023-04-20T01:43:52.863Z,98688.21
2023-04-20T01:46:21.410Z,98688.88
2023-04-20T01:48:49.652Z,98688.48
2023-04-20T01:51:17.718Z,98691.94
2023-04-20T01:53:45.926Z,98693.64
2023-04-20T01:56:14.325Z,98694.48
2023-04-20T01:58:42.565Z,98695.86
2023-04-20T02:01:11.612Z,98697.92
2023-04-20T02:03:40.056Z,98696.34
2023-04-20T02:06:08.544Z,98697.71
2023-04-20T02:08:37.028Z,98693.72
2023-04-20T02:11:06.580Z,98690.25
2023-04-20T02:13:37.106Z,98688.88
2023-04-20T02:16:06.418Z,98688.89
2023-04-20T02:18:34.994Z,98688.23
2023-04-20T02:21:03.598Z,98689.65
2023-04-20T02:23:32.279Z,98685.70
2023-04-20T02:26:00.773Z,98682.27
2023-04-20T02:28:29.051Z,98685.38
2023-04-20T02:30:57.153Z,98686.98
2023-04-20T02:33:25.716Z,98688.38
2023-04-20T02:35:54.706Z,98689.07
2023-04-20T02:38:22.892Z,98688.20
2023-04-20T02:40:50.973Z,98688.91
2023-04-20T02:43:19.146Z,98685.96
2023-04-20T02:45:48.066Z,98691.69
2023-04-20T02:48:17.053Z,98694.83
2023-04-20T02:50:45.132Z,98694.48
2023-04-20T02:53:17.748Z,98694.47
2023-04-20T02:55:47.970Z,98693.23
2023-04-20T02:58:25.319Z,98695.80
2023-04-20T03:01:19.778Z,98701.65
2023-04-20T03:03:49.835Z,98695.39
2023-04-20T03:06:18.513Z,98695.19
2023-04-20T03:08:54.193Z,98700.73
2023-04-20T03:11:54.575Z,98698.63
2023-04-20T03:14:36.500Z,98697.90
2023-04-20T03:17:04.561Z,98697.73
2023-04-20T03:19:33.141Z,98699.10
2023-04-20T03:22:01.262Z,98700.15
2023-04-20T03:24:30.630Z,98701.18
2023-04-20T03:26:59.755Z,98697.73
2023-04-20T03:29:41.693Z,98702.93
2023-04-20T03:32:10.185Z,98700.38
2023-04-20T03:34:38.560Z,98705.25
2023-04-20T03:37:07.384Z,98708.23
2023-04-20T03:39:35.738Z,98708.23
2023-04-20T03:42:07.256Z,98713.43
2023-04-20T03:44:36.162Z,98714.98
2023-04-20T03:47:06.410Z,98721.89
2023-04-20T03:49:35.578Z,98722.05
2023-04-20T03:52:03.896Z,98715.13
2023-04-20T03:54:32.804Z,98713.89
2023-04-20T03:57:02.327Z,98715.23
2023-04-20T03:59:30.934Z,98714.00
2023-04-20T04:02:00.141Z,98717.61
2023-04-20T04:04:35.058Z,98714.83
2023-04-20T04:07:03.359Z,98718.11
2023-04-20T04:09:32.555Z,98720.86
2023-04-20T04:12:01.575Z,98720.13
2023-04-20T04:14:30.356Z,98723.02
2023-04-20T04:16:59.705Z,98724.39
2023-04-20T04:19:28.069Z,98725.26
2023-04-20T04:21:56.249Z,98721.27
2023-04-20T04:24:24.749Z,98724.91
2023-04-20T04:27:17.028Z,98728.35
2023-04-20T04:29:52.756Z,98728.50
2023-04-20T04:32:30.836Z,98728.63
2023-04-20T04:35:01.352Z,98731.86
2023-04-20T04:37:31.721Z,98737.54
2023-04-20T04:40:00.140Z,98742.52
2023-04-20T04:42:36.120Z,98746.45
2023-04-20T04:45:07.512Z,98746.59
2023-04-20T04:47:43.671Z,98748.45
2023-04-20T04:50:13.614Z,98748.95
2023-04-20T04:52:42.160Z,98753.03
2023-04-20T04:55:10.566Z,98754.25
2023-04-20T04:57:39.368Z,98758.17
2023-04-20T05:00:12.582Z,98761.59
2023-04-20T05:02:41.029Z,98757.73
2023-04-20T05:05:12.181Z,98762.39
2023-04-20T05:07:50.032Z,98760.77
2023-04-20T05:10:28.112Z,98762.80
2023-04-20T05:12:58.660Z,98763.44
2023-04-20T05:15:29.554Z,98767.22
2023-04-20T05:18:02.864Z,98770.48
2023-04-20T05:20:36.014Z,98770.41
2023-04-20T05:23:06.551Z,98777.98
2023-04-20T05:25:34.767Z,98773.95
2023-04-20T05:28:03.122Z,98774.44
2023-04-20T05:30:31.471Z,98775.05
2023-04-20T05:32:59.752Z,98781.87
2023-04-20T05:35:28.102Z,98782.64
2023-04-20T05:37:56.576Z,98782.40
2023-04-20T05:40:24.845Z,98784.88
2023-04-20T05:42:52.993Z,98785.41
2023-04-20T05:45:21.377Z,98790.44
2023-04-20T05:47:56.368Z,98786.63
2023-04-20T05:50:25.274Z,98788.15
2023-04-20T05:52:54.283Z,98790.72
2023-04-20T05:55:23.054Z,98789.85
2023-04-20T05:57:52.408Z,98787.58
2023-04-20T06:00:21.180Z,98794.33
2023-04-20T06:02:50.470Z,98785.14
2023-04-20T06:05:20.109Z,98788.48
2023-04-20T06:07:48.339Z,98793.94
2023-04-20T06:10:16.674Z,98791.19
2023-04-20T06:12:45.004Z,98787.54
2023-04-20T06:15:13.323Z,98789.08
2023-04-20T06:17:42.023Z,98786.00
2023-04-20T06:20:10.831Z,98791.32
2023-04-20T06:22:44.424Z,98791.70
2023-04-20T06:25:13.627Z,98792.48
2023-04-20T06:27:42.287Z,98793.91
2023-04-20T06:30:11.157Z,98799.92
2023-04-20T06:32:39.464Z,98795.84
2023-04-20T06:35:08.680Z,98795.30
2023-04-20T06:37:36.868Z,98798.23
2023-04-20T06:40:08.863Z,98795.70
2023-04-20T06:42:37.775Z,98800.30
2023-04-20T06:45:07.116Z,98805.70
2023-04-20T06:47:35.677Z,98801.80
2023-04-20T06:50:07.344Z,98799.36
2023-04-20T06:54:52.697Z,98804.58
2023-04-20T06:57:19.523Z,98804.72
2023-04-20T06:59:48.830Z,98806.35
2023-04-20T07:02:15.491Z,98803.89
2023-04-20T07:04:42.517Z,98812.54
2023-04-20T07:07:09.180Z,98811.48
2023-04-20T07:09:36.041Z,98813.11
2023-04-20T07:12:03.205Z,98811.69
2023-04-20T07:14:30.398Z,98808.48
2023-04-20T07:16:57.244Z,98811.20
2023-04-20T07:19:24.053Z,98813.98
2023-04-20T07:21:50.792Z,98810.84
2023-04-20T07:24:17.523Z,98812.05
2023-04-20T07:34:20.793Z,98811.91
2023-04-20T07:36:49.553Z,98813.73
2023-04-20T07:39:18.071Z,98806.67
2023-04-20T07:41:46.757Z,98812.56
2023-04-20T07:44:14.871Z,98805.30
2023-04-20T07:46:42.990Z,98809.23
2023-04-20T07:49:11.196Z,98808.77
2023-04-20T07:51:39.313Z,98809.67
2023-04-20T07:54:08.405Z,98806.89
2023-04-20T07:56:37.358Z,98809.98
2023-04-20T07:59:05.578Z,98807.20
2023-04-20T08:01:33.968Z,98808.40
2023-04-20T08:04:02.776Z,98808.35
2023-04-20T08:06:33.149Z,98808.41
2023-04-20T08:09:01.308Z,98811.71
2023-04-20T08:11:29.631Z,98806.90
2023-04-20T08:13:58.477Z,98810.84
2023-04-20T08:16:26.591Z,98804.71
2023-04-20T08:18:55.185Z,98812.94
2023-04-20T08:21:25.483Z,98811.08
2023-04-20T08:23:55.623Z,98810.48
2023-04-20T08:26:25.472Z,98807.73
2023-04-20T08:28:53.783Z,98809.29
2023-04-20T08:31:21.980Z,98808.77
2023-04-20T08:33:50.325Z,98808.94
2023-04-20T08:36:18.894Z,98812.98
2023-04-20T08:38:54.298Z,98805.30
2023-04-20T08:41:22.535Z,98806.06
2023-04-20T08:43:50.672Z,98798.20
2023-04-20T08:46:19.286Z,98801.15
2023-04-20T08:48:48.796Z,98795.23
2023-04-20T08:51:18.300Z,98799.66
2023-04-20T08:53:46.605Z,98795.95
2023-04-20T08:56:14.742Z,98793.66
2023-04-20T08:58:42.941Z,98790.57
2023-04-20T09:01:12.742Z,98786.73
2023-04-20T09:03:43.102Z,98792.01
2023-04-20T09:06:16.123Z,98787.66
2023-04-20T09:08:44.807Z,98787.89
2023-04-20T09:11:22.846Z,98789.20
2023-04-20T09:13:59.212Z,98781.86
2023-04-20T09:16:27.266Z,98783.29
2023-04-20T09:18:56.763Z,98777.59
2023-04-20T09:21:26.647Z,98784.18
2023-04-20T09:24:08.071Z,98781.84
2023-04-20T09:26:36.378Z,98776.41
2023-04-20T09:29:04.937Z,98786.56
2023-04-20T09:31:33.538Z,98776.58
2023-04-20T09:34:02.944Z,98778.37
2023-04-20T09:36:38.308Z,98779.02
2023-04-20T09:39:19.596Z,98772.60
2023-04-20T09:41:48.239Z,98774.02
2023-04-20T09:44:17.343Z,98771.95
2023-04-20T09:46:46.665Z,98764.86
2023-04-20T09:49:15.058Z,98772.45
2023-04-20T09:51:46.549Z,98764.65
2023-04-20T09:54:16.078Z,98763.52
2023-04-20T09:56:44.895Z,98767.95
2023-04-20T09:59:12.970Z,98762.56
2023-04-20T10:01:41.255Z,98759.32
2023-04-20T10:04:11.208Z,98751.23
2023-04-20T10:06:39.983Z,98753.83
2023-04-20T10:09:08.795Z,98745.12
2023-04-20T10:11:52.479Z,98738.95
2023-04-20T10:14:25.632Z,98731.78
2023-04-20T10:17:07.124Z,98725.16
2023-04-20T10:19:43.130Z,98738.48
2023-04-20T10:22:13.135Z,98737.73
2023-04-20T10:24:49.164Z,98738.33
2023-04-20T10:27:25.707Z,98735.05
2023-04-20T10:29:54.255Z,98739.56
2023-04-20T10:32:29.091Z,98735.65
2023-04-20T10:35:05.074Z,98734.86
2023-04-20T10:37:34.226Z,98733.66
2023-04-20T10:40:03.791Z,98734.39
2023-04-20T10:42:44.884Z,98734.71
2023-04-20T10:45:13.366Z,98732.48
2023-04-20T10:47:41.751Z,98733.70
2023-04-20T10:50:14.081Z,98725.33
2023-04-20T10:52:43.590Z,98726.14
2023-04-20T10:55:27.593Z,98722.35
2023-04-20T10:57:55.758Z,98718.68
2023-04-20T11:00:47.120Z,98717.77
2023-04-20T11:03:15.519Z,98718.80
2023-04-20T11:05:44.552Z,98721.20
2023-04-20T11:08:12.491Z,98714.71
2023-04-20T11:10:42.300Z,98720.51
2023-04-20T11:13:23.700Z,98717.98
2023-04-20T11:15:52.560Z,98724.09
2023-04-20T11:18:21.582Z,98727.08
2023-04-20T11:20:54.067Z,98724.09
2023-04-20T11:23:23.968Z,98727.17
2023-04-20T11:25:56.060Z,98726.38
2023-04-20T11:28:24.194Z,98730.62
2023-04-20T11:30:52.840Z,98735.36
2023-04-20T11:33:31.300Z,98729.73
2023-04-20T11:35:59.995Z,98727.24
2023-04-20T11:38:32.774Z,98726.93
2023-04-20T11:41:04.786Z,98735.88
2023-04-20T11:43:33.057Z,98726.82
2023-04-20T11:46:02.907Z,98732.98
2023-04-20T11:48:31.643Z,98728.38
2023-04-20T11:50:59.878Z,98731.09
2023-04-20T11:53:27.942Z,98730.02
2023-04-20T11:55:55.965Z,98724.93
2023-04-20T11:58:26.648Z,98718.41
2023-04-20T12:00:54.691Z,98719.66
2023-04-20T12:03:23.067Z,98713.30
2023-04-20T12:05:51.510Z,98713.06
2023-04-20T12:08:20.591Z,98704.92
2023-04-20T12:18:28.306Z,98700.27
2023-04-20T12:20:56.702Z,98699.40
2023-04-20T12:23:25.627Z,98697.80
2023-04-20T12:25:54.006Z,98692.83
2023-04-20T12:28:22.729Z,98691.41
2023-04-20T12:30:51.047Z,98686.38
2023-04-20T12:33:19.434Z,98685.55
2023-04-20T12:35:48.823Z,98684.10
2023-04-20T12:45:55.756Z,98692.45
2023-04-20T12:48:23.975Z,98684.03
2023-04-20T12:50:52.368Z,98677.91
2023-04-20T12:53:20.606Z,98677.63
2023-04-20T12:55:55.048Z,98677.27
2023-04-20T12:58:29.278Z,98669.92
2023-04-20T13:00:57.617Z,98673.02
2023-04-20T13:03:26.488Z,98671.17
2023-04-20T13:05:55.032Z,98673.84
2023-04-20T13:08:23.367Z,98666.33
2023-04-20T13:10:51.597Z,98664.89
2023-04-20T13:13:19.781Z,98662.81
2023-04-20T13:15:47.854Z,98666.27
2023-04-20T13:18:17.423Z,98668.23
2023-04-20T13:20:45.424Z,98661.27
2023-04-20T13:23:15.373Z,98662.67
2023-04-20T13:25:43.922Z,98664.59
2023-04-20T13:28:14.501Z,98658.66
2023-04-20T13:30:43.058Z,98657.39
2023-04-20T13:33:11.322Z,98660.77
2023-04-20T13:35:40.318Z,98658.94
2023-04-20T13:38:08.524Z,98659.85
2023-04-20T13:40:37.255Z,98658.52
2023-04-20T13:43:05.510Z,98653.27
2023-04-20T13:45:33.907Z,98654.81
2023-04-20T13:48:02.223Z,98655.62
2023-04-20T13:50:30.669Z,98654.73
2023-04-20T13:52:58.767Z,98654.02
2023-04-20T13:55:27.271Z,98654.56
2023-04-20T13:57:55.646Z,98654.68
2023-04-20T14:00:24.148Z,98659.06
2023-04-20T14:02:52.573Z,98658.52
2023-04-20T14:05:21.135Z,98658.67
2023-04-20T14:07:49.511Z,98659.35
2023-04-20T14:10:17.747Z,98659.64
2023-04-20T14:12:45.980Z,98665.86
2023-04-20T14:15:14.374Z,98673.89
2023-04-20T14:17:42.780Z,98671.08
2023-04-20T14:20:11.771Z,98671.78
2023-04-20T14:22:40.682Z,98673.61
2023-04-20T14:25:10.011Z,98668.73
2023-04-20T14:27:38.954Z,98669.69
2023-04-20T14:30:08.391Z,98674.88
2023-04-20T14:32:36.824Z,98678.13
2023-04-20T14:35:06.180Z,98674.83
2023-04-20T14:37:34.398Z,98674.17
2023-04-20T14:40:03.716Z,98681.19
2023-04-20T14:42:32.072Z,98683.80
2023-04-20T14:45:00.228Z,98689.02
2023-04-20T14:47:28.898Z,98686.17
2023-04-20T14:49:57.151Z,98687.66
2023-04-20T14:52:25.633Z,98700.67
2023-04-20T14:54:54.046Z,98708.88
2023-04-20T14:57:22.517Z,98709.84
2023-04-20T14:59:50.471Z,98707.71
2023-04-20T15:02:18.834Z,98708.44
2023-04-20T15:04:47.429Z,98712.59
2023-04-20T15:07:15.847Z,98713.72
2023-04-20T15:09:44.108Z,98712.94
2023-04-20T15:12:12.307Z,98717.08
2023-04-20T15:14:40.695Z,98720.23
2023-04-20T15:17:09.039Z,98715.65
2023-04-20T15:19:37.225Z,98716.29
2023-04-20T15:22:05.426Z,98713.96
2023-04-20T15:24:33.653Z,98711.58
2023-04-20T15:27:02.519Z,98708.70
2023-04-20T15:29:31.537Z,98712.75
2023-04-20T15:31:59.823Z,98713.80
2023-04-20T15:34:28.566Z,98716.61
2023-04-20T15:36:56.606Z,98715.39
2023-04-20T15:39:24.728Z,98709.77
2023-04-20T15:41:53.093Z,98713.54
2023-04-20T15:44:21.142Z,98716.30
2023-04-20T15:46:49.134Z,98715.21
2023-04-20T15:49:20.226Z,98716.58
2023-04-20T15:51:48.613Z,98714.64
2023-04-20T15:57:04.131Z,98710.64
2023-04-20T15:59:32.687Z,98709.13
2023-04-20T16:02:01.111Z,98707.63
2023-04-20T16:04:30.107Z,98704.02
2023-04-20T16:06:59.005Z,98703.59
2023-04-20T16:09:27.812Z,98701.01
2023-04-20T16:11:56.103Z,98702.27
2023-04-20T16:14:24.406Z,98703.89
2023-04-20T16:16:52.803Z,98704.16
2023-04-20T16:19:20.985Z,98702.89
2023-04-20T16:21:49.087Z,98709.62
2023-04-20T16:24:17.623Z,98711.52
2023-04-20T16:26:46.669Z,98715.67
2023-04-20T16:29:14.749Z,98716.63
2023-04-20T16:31:42.818Z,98717.34
2023-04-20T16:34:11.035Z,98720.55
2023-04-20T16:36:39.081Z,98725.28
2023-04-20T16:39:07.774Z,98727.41
2023-04-20T16:41:36.431Z,98734.68
2023-04-20T16:44:04.898Z,98741.04
2023-04-20T16:46:33.145Z,98744.80
2023-04-20T16:49:01.414Z,98746.46
2023-04-20T16:51:30.010Z,98753.66
2023-04-20T16:53:58.111Z,98756.85
2023-04-20T16:56:26.313Z,98761.84
2023-04-20T16:58:54.492Z,98783.77
2023-04-20T17:01:22.578Z,98789.02
2023-04-20T17:03:51.903Z,98792.02
2023-04-20T17:06:19.953Z,98799.05
2023-04-20T17:08:49.396Z,98800.50
2023-04-20T17:11:19.565Z,98806.79
2023-04-20T17:13:47.795Z,98815.04
2023-04-20T17:16:16.029Z,98817.86
2023-04-20T17:26:30.459Z,98829.26
2023-04-20T17:28:57.420Z,98835.99
2023-04-20T17:31:24.122Z,98841.37
2023-04-20T17:33:52.572Z,98844.21
2023-04-20T17:36:19.297Z,98853.37
2023-04-20T17:38:46.250Z,98859.04
2023-04-20T17:41:12.900Z,98872.20
2023-04-20T17:43:40.372Z,98867.93
2023-04-20T17:46:07.750Z,98881.58
2023-04-20T17:48:35.029Z,98883.23
2023-04-20T17:51:02.100Z,98885.46
2023-04-20T17:53:28.910Z,98888.73
2023-04-20T17:55:55.569Z,98893.58
2023-04-20T17:58:22.948Z,98894.74
2023-04-20T18:00:50.696Z,98902.17
2023-04-20T18:03:19.175Z,98897.94
2023-04-20T18:05:46.329Z,98907.25
2023-04-20T18:08:15.136Z,98911.89
2023-04-20T18:10:42.152Z,98913.73
2023-04-20T18:13:08.867Z,98919.54
2023-04-20T18:15:35.738Z,98922.23
2023-04-20T18:18:03.138Z,98920.90
2023-04-20T18:20:32.394Z,98921.83
2023-04-20T18:22:59.775Z,98921.71
2023-04-20T18:25:26.688Z,98926.80
2023-04-20T18:27:53.495Z,98927.89
2023-04-20T18:30:20.590Z,98931.07
2023-04-20T18:32:47.542Z,98930.44
2023-04-20T18:35:15.093Z,98931.33
2023-04-20T18:37:42.282Z,98934.86
2023-04-20T18:40:09.687Z,98935.58
2023-04-20T18:42:36.532Z,98936.67
2023-04-20T18:45:05.521Z,98939.70
2023-04-20T18:47:32.870Z,98937.55
2023-04-20T18:50:00.264Z,98939.89
2023-04-20T18:52:27.282Z,98942.71
2023-04-20T18:54:54.785Z,98945.36
2023-04-20T18:57:25.367Z,98944.67
2023-04-20T18:59:52.778Z,98945.20
2023-04-20T19:02:19.846Z,98942.80
2023-04-20T19:04:46.728Z,98944.70
2023-04-20T19:07:13.396Z,98950.95
2023-04-20T19:12:09.051Z,98950.23
2023-04-20T19:14:37.680Z,98950.95
2023-04-20T19:17:06.956Z,98951.98
2023-04-20T19:19:35.733Z,98948.00
2023-04-20T19:22:04.729Z,98951.67
2023-04-20T19:24:34.454Z,98951.53
2023-04-20T19:27:02.488Z,98955.89
2023-04-20T19:29:31.400Z,98952.95
2023-04-20T19:31:59.590Z,98954.35
2023-04-20T19:34:27.651Z,98946.09
2023-04-20T19:36:55.940Z,98948.73
2023-04-20T19:39:23.878Z,98944.27
2023-04-20T19:41:52.193Z,98942.59
2023-04-20T19:44:20.892Z,98936.77
2023-04-20T19:46:50.018Z,98932.17
2023-04-20T19:49:18.698Z,98926.52
2023-04-20T19:51:47.472Z,98917.20
2023-04-20T19:54:17.547Z,98909.45
2023-04-20T19:56:45.857Z,98903.96
2023-04-20T19:59:14.141Z,98896.73
2023-04-20T20:01:42.259Z,98886.92
2023-04-20T20:04:10.731Z,98882.16
2023-04-20T20:06:39.458Z,98886.93
2023-04-20T20:09:07.813Z,98883.01
2023-04-20T20:11:36.136Z,98880.28
2023-04-20T20:14:04.228Z,98878.06
2023-04-20T20:16:32.784Z,98878.45
2023-04-20T20:19:01.203Z,98878.13
2023-04-20T20:21:29.497Z,98873.48
2023-04-20T20:23:57.699Z,98872.63
2023-04-20T20:26:25.738Z,98873.15
2023-04-20T20:28:53.881Z,98873.88
2023-04-20T20:31:22.466Z,98872.85
2023-04-20T20:33:51.136Z,98864.71
2023-04-20T20:36:19.320Z,98864.20
2023-04-20T20:38:47.505Z,98863.85
2023-04-20T20:41:16.336Z,98864.90
2023-04-20T20:43:45.935Z,98869.45
2023-04-20T20:46:14.249Z,98868.47
2023-04-20T20:48:42.722Z,98869.86
2023-04-20T20:51:11.750Z,98868.52
2023-04-20T20:53:40.042Z,98869.23
2023-04-20T20:56:08.871Z,98868.75
2023-04-20T20:58:37.346Z,98873.98
2023-04-20T21:01:06.348Z,98868.28
2023-04-20T21:03:34.971Z,98867.77
2023-04-20T21:06:03.754Z,98866.55
2023-04-20T21:08:32.047Z,98866.23
2023-04-20T21:11:00.231Z,98865.73
2023-04-20T21:13:28.857Z,98864.18
2023-04-20T21:15:57.335Z,98865.77
2023-04-20T21:18:25.617Z,98864.56
2023-04-20T21:20:53.701Z,98860.42
2023-04-20T21:23:21.998Z,98857.98
2023-04-20T21:25:50.209Z,98856.79
2023-04-20T21:28:18.673Z,98853.34
2023-04-20T21:30:46.785Z,98848.00
2023-04-20T21:33:15.376Z,98844.91
2023-04-20T21:35:43.948Z,98843.19
2023-04-20T21:38:12.634Z,98840.60
2023-04-20T21:40:40.754Z,98836.78
2023-04-20T21:43:08.948Z,98837.83
2023-04-20T21:45:37.774Z,98835.05
2023-04-20T21:48:06.223Z,98833.83
2023-04-20T21:50:36.850Z,98830.89
2023-04-20T21:53:05.105Z,98826.91
2023-04-20T21:55:33.491Z,98823.09
2023-04-20T21:58:01.764Z,98819.96
2023-04-20T22:00:30.068Z,98819.45
2023-04-20T22:02:58.439Z,98815.11
2023-04-20T22:05:27.963Z,98812.31
2023-04-20T22:07:59.217Z,98810.22
2023-04-20T22:10:28.718Z,98806.23
2023-04-20T22:12:56.992Z,98807.10
2023-04-20T22:15:26.160Z,98801.70
2023-04-20T22:17:54.710Z,98798.37
2023-04-20T22:20:22.787Z,98798.16
2023-04-20T22:22:50.894Z,98794.86
2023-04-20T22:25:18.852Z,98792.23
2023-04-20T22:27:46.886Z,98784.77
2023-04-20T22:30:14.968Z,98781.46
2023-04-20T22:32:43.105Z,98779.52
2023-04-20T22:35:11.158Z,98774.10
2023-04-20T22:37:39.114Z,98771.80
2023-04-20T22:40:07.995Z,98770.05
2023-04-20T22:42:38.804Z,98770.71
2023-04-20T22:45:09.403Z,98765.65
2023-04-20T22:47:38.382Z,98763.38
2023-04-20T22:50:06.960Z,98760.55
2023-04-20T22:55:54.830Z,98750.23
2023-04-20T22:58:23.175Z,98750.97
2023-04-20T23:00:51.517Z,98751.16
2023-04-20T23:03:20.177Z,98753.77
2023-04-20T23:05:48.745Z,98760.02
2023-04-20T23:08:17.762Z,98763.02
2023-04-20T23:10:47.556Z,98759.77
2023-04-20T23:13:18.619Z,98754.23
2023-04-20T23:15:46.750Z,98749.90
2023-04-20T23:18:15.275Z,98746.42
2023-04-20T23:20:43.500Z,98740.03
2023-04-20T23:23:11.848Z,98735.52
2023-04-20T23:25:39.874Z,98729.66
2023-04-20T23:28:08.207Z,98726.72
2023-04-20T23:30:36.644Z,98719.25
2023-04-20T23:33:05.170Z,98715.09
2023-04-20T23:35:34.416Z,98710.05
2023-04-20T23:38:04.028Z,98701.55
2023-04-20T23:40:33.124Z,98701.89
2023-04-20T23:43:01.521Z,98700.67
2023-04-20T23:45:30.003Z,98691.84
2023-04-20T23:47:58.189Z,98691.51
2023-04-20T23:50:26.683Z,98690.33
2023-04-20T23:52:54.850Z,98683.03
2023-04-20T23:55:23.134Z,98676.27
2023-04-20T23:57:52.937Z,98673.00
